sensor_id;sensor_type;location;lat;lon;timestamp;pressure;altitude;pressure_sealevel;temperature;humidity
39435;BME280;66825;51.880;-0.518;2023-05-01T00:01:42;100831.91;;;18.70;42.30
39435;BME280;66825;51.880;-0.518;2023-05-01T00:04:08;100823.72;;;18.70;42.31
39435;BME280;66825;51.880;-0.518;2023-05-01T00:06:33;100824.03;;;18.69;42.36
39435;BME280;66825;51.880;-0.518;2023-05-01T00:08:59;100826.78;;;18.69;42.61
39435;BME280;66825;51.880;-0.518;2023-05-01T00:11:24;100828.75;;;18.63;42.12
39435;BME280;66825;51.880;-0.518;2023-05-01T00:13:50;100817.84;;;18.63;42.38
39435;BME280;66825;51.880;-0.518;2023-05-01T00:16:15;100825.16;;;18.68;42.39
39435;BME280;66825;51.880;-0.518;2023-05-01T00:18:42;100812.59;;;18.67;42.14
39435;BME280;66825;51.880;-0.518;2023-05-01T00:21:08;100817.34;;;18.61;42.17
39435;BME280;66825;51.880;-0.518;2023-05-01T00:23:33;100824.63;;;18.66;42.51
39435;BME280;66825;51.880;-0.518;2023-05-01T00:25:58;100814.84;;;18.65;42.45
39435;BME280;66825;51.880;-0.518;2023-05-01T00:28:24;100816.75;;;18.64;42.35
39435;BME280;66825;51.880;-0.518;2023-05-01T00:30:50;100756.78;;;18.26;42.44
39435;BME280;66825;51.880;-0.518;2023-05-01T00:33:15;100806.44;;;18.61;42.42
39435;BME280;66825;51.880;-0.518;2023-05-01T00:35:45;100805.31;;;18.62;42.34
39435;BME280;66825;51.880;-0.518;2023-05-01T00:38:10;100796.31;;;18.62;42.43
39435;BME280;66825;51.880;-0.518;2023-05-01T00:40:43;100800.16;;;18.61;42.37
39435;BME280;66825;51.880;-0.518;2023-05-01T00:43:10;100793.91;;;18.60;42.28
39435;BME280;66825;51.880;-0.518;2023-05-01T00:45:36;100792.28;;;18.59;42.18
39435;BME280;66825;51.880;-0.518;2023-05-01T00:48:02;100768.63;;;18.54;42.34
39435;BME280;66825;51.880;-0.518;2023-05-01T00:50:28;100784.09;;;18.59;42.33
39435;BME280;66825;51.880;-0.518;2023-05-01T00:52:54;100777.00;;;18.58;42.18
39435;BME280;66825;51.880;-0.518;2023-05-01T00:55:20;100775.38;;;18.57;42.28
39435;BME280;66825;51.880;-0.518;2023-05-01T00:57:46;100785.19;;;18.58;42.54
39435;BME280;66825;51.880;-0.518;2023-05-01T01:00:12;100765.56;;;18.56;42.32
39435;BME280;66825;51.880;-0.518;2023-05-01T01:02:38;100772.13;;;18.55;42.37
39435;BME280;66825;51.880;-0.518;2023-05-01T01:05:04;100760.53;;;18.49;42.39
39435;BME280;66825;51.880;-0.518;2023-05-01T01:07:41;100753.44;;;18.48;42.42
39435;BME280;66825;51.880;-0.518;2023-05-01T01:13:07;100760.75;;;18.53;42.18
39435;BME280;66825;51.880;-0.518;2023-05-01T01:15:54;100730.69;;;18.39;42.53
39435;BME280;66825;51.880;-0.518;2023-05-01T01:21:44;100744.16;;;18.49;42.24
39435;BME280;66825;51.880;-0.518;2023-05-01T01:24:35;100746.88;;;18.49;42.43
39435;BME280;66825;51.880;-0.518;2023-05-01T01:27:38;100712.16;;;18.36;42.31
39435;BME280;66825;51.880;-0.518;2023-05-01T01:30:34;100730.78;;;18.48;42.19
39435;BME280;66825;51.880;-0.518;2023-05-01T01:35:42;100732.50;;;18.44;42.44
39435;BME280;66825;51.880;-0.518;2023-05-01T01:38:16;100715.72;;;18.36;42.71
39435;BME280;66825;51.880;-0.518;2023-05-01T01:41:08;100723.22;;;18.45;42.38
39435;BME280;66825;51.880;-0.518;2023-05-01T01:43:39;100722.41;;;18.44;42.41
39435;BME280;66825;51.880;-0.518;2023-05-01T01:46:06;100703.28;;;18.30;42.29
39435;BME280;66825;51.880;-0.518;2023-05-01T01:48:37;100722.72;;;18.42;42.37
39435;BME280;66825;51.880;-0.518;2023-05-01T01:51:09;100722.72;;;18.42;42.44
39435;BME280;66825;51.880;-0.518;2023-05-01T01:53:38;100726.53;;;18.41;42.53
39435;BME280;66825;51.880;-0.518;2023-05-01T01:56:06;100694.88;;;18.27;42.33
39435;BME280;66825;51.880;-0.518;2023-05-01T01:58:35;100716.72;;;18.40;42.46
39435;BME280;66825;51.880;-0.518;2023-05-01T02:01:01;100710.47;;;18.40;42.43
39435;BME280;66825;51.880;-0.518;2023-05-01T02:03:28;100711.59;;;18.39;42.33
39435;BME280;66825;51.880;-0.518;2023-05-01T02:05:55;100701.47;;;18.39;42.51
39435;BME280;66825;51.880;-0.518;2023-05-01T02:08:23;100699.03;;;18.38;42.58
39435;BME280;66825;51.880;-0.518;2023-05-01T02:10:50;100699.88;;;18.38;42.51
39435;BME280;66825;51.880;-0.518;2023-05-01T02:13:26;100700.97;;;18.37;42.32
39435;BME280;66825;51.880;-0.518;2023-05-01T02:15:55;100706.44;;;18.37;42.42
39435;BME280;66825;51.880;-0.518;2023-05-01T02:18:21;100691.97;;;18.37;42.34
39435;BME280;66825;51.880;-0.518;2023-05-01T02:20:47;100668.50;;;18.22;42.48
39435;BME280;66825;51.880;-0.518;2023-05-01T02:23:13;100689.44;;;18.27;42.32
39435;BME280;66825;51.880;-0.518;2023-05-01T02:25:39;100700.47;;;18.35;42.45
39435;BME280;66825;51.880;-0.518;2023-05-01T02:28:11;100685.09;;;18.25;42.30
39435;BME280;66825;51.880;-0.518;2023-05-01T02:30:37;100698.84;;;18.34;42.42
39435;BME280;66825;51.880;-0.518;2023-05-01T02:33:05;100689.84;;;18.34;42.23
39435;BME280;66825;51.880;-0.518;2023-05-01T02:35:31;100690.97;;;18.33;42.42
39435;BME280;66825;51.880;-0.518;2023-05-01T02:37:56;100605.34;;;17.82;42.45
39435;BME280;66825;51.880;-0.518;2023-05-01T02:40:23;100687.41;;;18.32;42.67
39435;BME280;66825;51.880;-0.518;2023-05-01T02:42:48;100695.59;;;18.32;42.29
39435;BME280;66825;51.880;-0.518;2023-05-01T02:45:20;100694.00;;;18.31;42.41
39435;BME280;66825;51.880;-0.518;2023-05-01T02:47:50;100689.66;;;18.30;42.68
39435;BME280;66825;51.880;-0.518;2023-05-01T02:50:17;100696.22;;;18.29;42.38
39435;BME280;66825;51.880;-0.518;2023-05-01T02:52:43;100688.34;;;18.28;42.64
39435;BME280;66825;51.880;-0.518;2023-05-01T02:55:10;100689.13;;;18.28;42.53
39435;BME280;66825;51.880;-0.518;2023-05-01T02:57:36;100692.16;;;18.27;42.48
39435;BME280;66825;51.880;-0.518;2023-05-01T03:00:01;100680.00;;;18.19;42.24
39435;BME280;66825;51.880;-0.518;2023-05-01T03:02:27;100651.41;;;18.02;42.27
39435;BME280;66825;51.880;-0.518;2023-05-01T03:04:53;100688.59;;;18.26;42.28
39435;BME280;66825;51.880;-0.518;2023-05-01T03:07:18;100680.72;;;18.24;42.33
39435;BME280;66825;51.880;-0.518;2023-05-01T03:09:43;100679.94;;;18.24;42.58
39435;BME280;66825;51.880;-0.518;2023-05-01T03:12:09;100680.53;;;18.21;42.19
39435;BME280;66825;51.880;-0.518;2023-05-01T03:14:35;100686.19;;;18.24;42.25
39435;BME280;66825;51.880;-0.518;2023-05-01T03:17:00;100677.22;;;18.24;42.45
39435;BME280;66825;51.880;-0.518;2023-05-01T03:19:26;100661.91;;;18.09;42.33
39435;BME280;66825;51.880;-0.518;2023-05-01T03:21:51;100686.50;;;18.23;42.41
39435;BME280;66825;51.880;-0.518;2023-05-01T03:24:17;100685.66;;;18.22;42.49
39435;BME280;66825;51.880;-0.518;2023-05-01T03:26:42;100683.78;;;18.23;42.51
39435;BME280;66825;51.880;-0.518;2023-05-01T03:29:08;100674.75;;;18.22;42.57
39435;BME280;66825;51.880;-0.518;2023-05-01T03:31:34;100677.78;;;18.21;42.55
39435;BME280;66825;51.880;-0.518;2023-05-01T03:33:59;100669.63;;;18.21;42.34
39435;BME280;66825;51.880;-0.518;2023-05-01T03:36:25;100665.25;;;18.20;42.33
39435;BME280;66825;51.880;-0.518;2023-05-01T03:38:51;100660.22;;;18.13;42.29
39435;BME280;66825;51.880;-0.518;2023-05-01T03:41:17;100669.91;;;18.19;42.34
39435;BME280;66825;51.880;-0.518;2023-05-01T03:43:42;100617.97;;;17.77;42.48
39435;BME280;66825;51.880;-0.518;2023-05-01T03:46:08;100681.94;;;18.18;42.35
39435;BME280;66825;51.880;-0.518;2023-05-01T03:48:33;100674.84;;;18.17;42.49
39435;BME280;66825;51.880;-0.518;2023-05-01T03:50:59;100669.41;;;18.17;42.46
39435;BME280;66825;51.880;-0.518;2023-05-01T03:53:24;100677.59;;;18.17;42.42
39435;BME280;66825;51.880;-0.518;2023-05-01T03:55:50;100650.06;;;18.00;42.11
39435;BME280;66825;51.880;-0.518;2023-05-01T03:58:15;100674.34;;;18.15;42.46
39435;BME280;66825;51.880;-0.518;2023-05-01T04:00:41;100665.34;;;18.15;42.27
39435;BME280;66825;51.880;-0.518;2023-05-01T04:03:07;100666.97;;;18.16;42.60
39435;BME280;66825;51.880;-0.518;2023-05-01T04:05:32;100665.94;;;18.12;42.40
39435;BME280;66825;51.880;-0.518;2023-05-01T04:07:58;100651.41;;;18.02;42.41
39435;BME280;66825;51.880;-0.518;2023-05-01T04:10:23;100626.03;;;17.83;42.46
39435;BME280;66825;51.880;-0.518;2023-05-01T04:12:49;100623.03;;;17.84;42.28
39435;BME280;66825;51.880;-0.518;2023-05-01T04:15:14;100671.91;;;18.14;42.65
39435;BME280;66825;51.880;-0.518;2023-05-01T04:17:40;100638.66;;;17.98;42.60
39435;BME280;66825;51.880;-0.518;2023-05-01T04:20:08;100665.16;;;18.11;42.64
39435;BME280;66825;51.880;-0.518;2023-05-01T04:22:35;100658.59;;;18.12;42.50
39435;BME280;66825;51.880;-0.518;2023-05-01T04:25:01;100662.41;;;18.11;42.31
39435;BME280;66825;51.880;-0.518;2023-05-01T04:27:26;100617.75;;;17.74;42.68
39435;BME280;66825;51.880;-0.518;2023-05-01T04:29:52;100600.66;;;17.68;42.48
39435;BME280;66825;51.880;-0.518;2023-05-01T04:32:17;100668.19;;;18.09;42.38
39435;BME280;66825;51.880;-0.518;2023-05-01T04:34:43;100664.63;;;18.09;42.31
39435;BME280;66825;51.880;-0.518;2023-05-01T04:37:09;100614.28;;;17.68;42.35
39435;BME280;66825;51.880;-0.518;2023-05-01T04:39:35;100668.47;;;18.08;42.30
39435;BME280;66825;51.880;-0.518;2023-05-01T04:42:01;100667.66;;;18.07;42.57
39435;BME280;66825;51.880;-0.518;2023-05-01T04:44:27;100671.19;;;18.08;42.61
39435;BME280;66825;51.880;-0.518;2023-05-01T04:46:52;100673.13;;;18.07;42.43
39435;BME280;66825;51.880;-0.518;2023-05-01T04:49:18;100661.25;;;17.98;42.70
39435;BME280;66825;51.880;-0.518;2023-05-01T04:51:43;100653.09;;;17.98;42.75
39435;BME280;66825;51.880;-0.518;2023-05-01T04:54:09;100605.31;;;17.68;42.30
39435;BME280;66825;51.880;-0.518;2023-05-01T04:56:35;100661.69;;;18.05;42.22
39435;BME280;66825;51.880;-0.518;2023-05-01T04:59:00;100662.38;;;17.97;42.62
39435;BME280;66825;51.880;-0.518;2023-05-01T05:01:26;100652.63;;;17.91;42.37
39435;BME280;66825;51.880;-0.518;2023-05-01T05:03:51;100686.53;;;18.04;42.32
39435;BME280;66825;51.880;-0.518;2023-05-01T05:06:17;100686.53;;;18.04;42.50
39435;BME280;66825;51.880;-0.518;2023-05-01T05:08:42;100682.97;;;18.03;42.42
39435;BME280;66825;51.880;-0.518;2023-05-01T05:11:08;100679.47;;;18.03;42.52
39435;BME280;66825;51.880;-0.518;2023-05-01T05:13:33;100680.25;;;18.03;42.23
39435;BME280;66825;51.880;-0.518;2023-05-01T05:15:59;100674.88;;;17.98;42.33
39435;BME280;66825;51.880;-0.518;2023-05-01T05:18:25;100685.22;;;18.01;42.36
39435;BME280;66825;51.880;-0.518;2023-05-01T05:20:50;100686.31;;;18.00;42.57
39435;BME280;66825;51.880;-0.518;2023-05-01T05:23:16;100689.03;;;18.00;42.63
39435;BME280;66825;51.880;-0.518;2023-05-01T05:25:41;100687.41;;;17.99;42.48
39435;BME280;66825;51.880;-0.518;2023-05-01T05:28:06;100690.94;;;18.00;42.57
39435;BME280;66825;51.880;-0.518;2023-05-01T05:30:32;100685.78;;;17.98;42.32
39435;BME280;66825;51.880;-0.518;2023-05-01T05:32:58;100692.06;;;17.99;42.50
39435;BME280;66825;51.880;-0.518;2023-05-01T05:35:24;100677.75;;;17.88;42.75
39435;BME280;66825;51.880;-0.518;2023-05-01T05:37:49;100688.53;;;17.98;42.52
39435;BME280;66825;51.880;-0.518;2023-05-01T05:40:15;100691.25;;;17.98;42.49
39435;BME280;66825;51.880;-0.518;2023-05-01T05:42:41;100695.06;;;17.97;42.36
39435;BME280;66825;51.880;-0.518;2023-05-01T05:45:06;100696.19;;;17.96;42.67
39435;BME280;66825;51.880;-0.518;2023-05-01T05:47:32;100696.19;;;17.96;42.53
39435;BME280;66825;51.880;-0.518;2023-05-01T05:49:57;100682.38;;;17.87;42.41
39435;BME280;66825;51.880;-0.518;2023-05-01T05:52:23;100698.09;;;17.96;42.51
39435;BME280;66825;51.880;-0.518;2023-05-01T05:54:48;100677.81;;;17.83;42.36
39435;BME280;66825;51.880;-0.518;2023-05-01T05:57:14;100691.00;;;17.94;42.61
39435;BME280;66825;51.880;-0.518;2023-05-01T05:59:39;100695.66;;;17.94;42.70
39435;BME280;66825;51.880;-0.518;2023-05-01T06:02:05;100694.03;;;17.93;42.27
39435;BME280;66825;51.880;-0.518;2023-05-01T06:04:31;100691.31;;;17.93;42.35
39435;BME280;66825;51.880;-0.518;2023-05-01T06:06:57;100691.31;;;17.93;42.15
39435;BME280;66825;51.880;-0.518;2023-05-01T06:09:23;100686.94;;;17.92;42.57
39435;BME280;66825;51.880;-0.518;2023-05-01T06:11:48;100688.88;;;17.91;42.65
39435;BME280;66825;51.880;-0.518;2023-05-01T06:14:14;100644.13;;;17.59;42.39
39435;BME280;66825;51.880;-0.518;2023-05-01T06:16:40;100696.22;;;17.91;42.48
39435;BME280;66825;51.880;-0.518;2023-05-01T06:19:06;100693.50;;;17.91;42.66
39435;BME280;66825;51.880;-0.518;2023-05-01T06:21:32;100706.34;;;17.90;42.30
39435;BME280;66825;51.880;-0.518;2023-05-01T06:23:58;100704.41;;;17.91;42.56
39435;BME280;66825;51.880;-0.518;2023-05-01T06:26:23;100693.81;;;17.89;42.41
39435;BME280;66825;51.880;-0.518;2023-05-01T06:28:50;100714.53;;;17.90;42.62
39435;BME280;66825;51.880;-0.518;2023-05-01T06:31:15;100713.69;;;17.90;42.29
39435;BME280;66825;51.880;-0.518;2023-05-01T06:33:41;100697.63;;;17.88;42.51
39435;BME280;66825;51.880;-0.518;2023-05-01T06:36:06;100705.50;;;17.90;42.36
39435;BME280;66825;51.880;-0.518;2023-05-01T06:38:32;100708.53;;;17.88;42.40
39435;BME280;66825;51.880;-0.518;2023-05-01T06:40:57;100708.53;;;17.88;42.39
39435;BME280;66825;51.880;-0.518;2023-05-01T06:43:23;100713.19;;;17.88;42.70
39435;BME280;66825;51.880;-0.518;2023-05-01T06:45:55;100685.25;;;17.77;42.64
39435;BME280;66825;51.880;-0.518;2023-05-01T06:48:20;100712.38;;;17.87;42.45
39435;BME280;66825;51.880;-0.518;2023-05-01T06:50:45;100694.19;;;17.83;42.65
39435;BME280;66825;51.880;-0.518;2023-05-01T06:53:11;100708.63;;;17.83;42.65
39435;BME280;66825;51.880;-0.518;2023-05-01T06:55:36;100676.94;;;17.68;42.57
39435;BME280;66825;51.880;-0.518;2023-05-01T06:58:02;100709.13;;;17.85;42.63
39435;BME280;66825;51.880;-0.518;2023-05-01T07:00:29;100709.13;;;17.85;42.90
39435;BME280;66825;51.880;-0.518;2023-05-01T07:02:54;100712.69;;;17.86;42.54
39435;BME280;66825;51.880;-0.518;2023-05-01T07:05:20;100719.22;;;17.85;42.38
39435;BME280;66825;51.880;-0.518;2023-05-01T07:07:46;100709.13;;;17.85;42.29
39435;BME280;66825;51.880;-0.518;2023-05-01T07:10:12;100707.53;;;17.84;42.29
39435;BME280;66825;51.880;-0.518;2023-05-01T07:12:37;100721.66;;;17.86;42.65
39435;BME280;66825;51.880;-0.518;2023-05-01T07:15:03;100711.06;;;17.85;42.62
39435;BME280;66825;51.880;-0.518;2023-05-01T07:17:29;100718.13;;;17.86;42.52
39435;BME280;66825;51.880;-0.518;2023-05-01T07:19:54;100718.13;;;17.86;42.91
39435;BME280;66825;51.880;-0.518;2023-05-01T07:22:19;100731.44;;;17.87;42.64
39435;BME280;66825;51.880;-0.518;2023-05-01T07:24:45;100727.94;;;17.87;42.48
39435;BME280;66825;51.880;-0.518;2023-05-01T07:27:10;100723.28;;;17.87;42.46
39435;BME280;66825;51.880;-0.518;2023-05-01T07:29:38;100724.97;;;17.83;42.71
39435;BME280;66825;51.880;-0.518;2023-05-01T07:32:04;100736.09;;;17.87;42.69
39435;BME280;66825;51.880;-0.518;2023-05-01T07:34:31;100742.66;;;17.86;42.65
39435;BME280;66825;51.880;-0.518;2023-05-01T07:36:56;100736.91;;;17.87;42.74
39435;BME280;66825;51.880;-0.518;2023-05-01T07:39:22;100713.19;;;17.69;42.86
39435;BME280;66825;51.880;-0.518;2023-05-01T07:41:47;100743.19;;;17.88;42.61
39435;BME280;66825;51.880;-0.518;2023-05-01T07:44:12;100744.78;;;17.89;42.50
39435;BME280;66825;51.880;-0.518;2023-05-01T07:46:38;100738.53;;;17.88;42.67
39435;BME280;66825;51.880;-0.518;2023-05-01T07:49:03;100745.59;;;17.89;42.40
39435;BME280;66825;51.880;-0.518;2023-05-01T07:51:29;100728.06;;;17.76;42.78
39435;BME280;66825;51.880;-0.518;2023-05-01T07:53:55;100743.97;;;17.88;42.76
39435;BME280;66825;51.880;-0.518;2023-05-01T07:56:20;100743.66;;;17.90;42.58
39435;BME280;66825;51.880;-0.518;2023-05-01T07:58:46;100752.16;;;17.88;42.53
39435;BME280;66825;51.880;-0.518;2023-05-01T08:01:11;100753.47;;;17.91;42.61
39435;BME280;66825;51.880;-0.518;2023-05-01T08:03:37;100757.81;;;17.92;42.50
39435;BME280;66825;51.880;-0.518;2023-05-01T08:06:03;100753.47;;;17.91;42.47
39435;BME280;66825;51.880;-0.518;2023-05-01T08:08:29;100754.31;;;17.91;42.30
39435;BME280;66825;51.880;-0.518;2023-05-01T08:10:54;100751.28;;;17.93;42.67
39435;BME280;66825;51.880;-0.518;2023-05-01T08:13:20;100755.63;;;17.94;42.54
39435;BME280;66825;51.880;-0.518;2023-05-01T08:15:46;100754.00;;;17.93;42.66
39435;BME280;66825;51.880;-0.518;2023-05-01T08:18:12;100750.16;;;17.94;42.52
39435;BME280;66825;51.880;-0.518;2023-05-01T08:20:44;100727.75;;;17.78;42.41
39435;BME280;66825;51.880;-0.518;2023-05-01T08:23:10;100742.00;;;17.94;42.42
39435;BME280;66825;51.880;-0.518;2023-05-01T08:25:36;100738.75;;;17.92;42.54
39435;BME280;66825;51.880;-0.518;2023-05-01T08:28:01;100731.75;;;17.86;42.89
39435;BME280;66825;51.880;-0.518;2023-05-01T08:30:27;100746.91;;;17.92;42.30
39435;BME280;66825;51.880;-0.518;2023-05-01T08:32:53;100736.69;;;17.84;42.68
39435;BME280;66825;51.880;-0.518;2023-05-01T08:35:18;100755.09;;;17.92;42.45
39435;BME280;66825;51.880;-0.518;2023-05-01T08:37:44;100755.88;;;17.98;42.65
39435;BME280;66825;51.880;-0.518;2023-05-01T08:40:10;100752.31;;;17.97;42.42
39435;BME280;66825;51.880;-0.518;2023-05-01T08:42:36;100756.66;;;17.98;42.47
39435;BME280;66825;51.880;-0.518;2023-05-01T08:45:06;100754.78;;;17.99;42.62
39435;BME280;66825;51.880;-0.518;2023-05-01T08:47:35;100758.28;;;17.99;42.63
39435;BME280;66825;51.880;-0.518;2023-05-01T08:50:02;100754.78;;;17.99;42.45
39435;BME280;66825;51.880;-0.518;2023-05-01T08:52:29;100750.91;;;18.00;42.41
39435;BME280;66825;51.880;-0.518;2023-05-01T08:54:55;100759.91;;;18.00;42.49
39435;BME280;66825;51.880;-0.518;2023-05-01T08:57:22;100755.56;;;17.99;42.61
39435;BME280;66825;51.880;-0.518;2023-05-01T08:59:49;100758.00;;;18.01;42.46
39435;BME280;66825;51.880;-0.518;2023-05-01T09:02:16;100756.09;;;18.01;42.35
39435;BME280;66825;51.880;-0.518;2023-05-01T09:04:42;100752.31;;;17.97;42.71
39435;BME280;66825;51.880;-0.518;2023-05-01T09:07:08;100749.91;;;17.96;42.81
39435;BME280;66825;51.880;-0.518;2023-05-01T09:09:34;100759.09;;;18.00;42.54
39435;BME280;66825;51.880;-0.518;2023-05-01T09:12:07;100770.22;;;18.03;42.77
39435;BME280;66825;51.880;-0.518;2023-05-01T09:14:36;100771.34;;;18.02;42.57
39435;BME280;66825;51.880;-0.518;2023-05-01T09:17:02;100771.03;;;18.04;42.63
39435;BME280;66825;51.880;-0.518;2023-05-01T09:19:27;100777.28;;;18.04;42.64
39435;BME280;66825;51.880;-0.518;2023-05-01T09:21:53;100692.72;;;17.52;42.60
39435;BME280;66825;51.880;-0.518;2023-05-01T09:24:22;100782.75;;;18.04;42.75
39435;BME280;66825;51.880;-0.518;2023-05-01T09:26:49;100785.47;;;18.04;42.54
39435;BME280;66825;51.880;-0.518;2023-05-01T09:29:44;100789.81;;;18.05;42.41
39435;BME280;66825;51.880;-0.518;2023-05-01T09:32:30;100793.38;;;18.06;42.26
39435;BME280;66825;51.880;-0.518;2023-05-01T09:35:16;100784.38;;;18.05;42.64
39435;BME280;66825;51.880;-0.518;2023-05-01T09:37:48;100791.44;;;18.06;42.49
39435;BME280;66825;51.880;-0.518;2023-05-01T09:40:13;100792.25;;;18.07;42.43
39435;BME280;66825;51.880;-0.518;2023-05-01T09:42:50;100793.88;;;18.08;42.41
39435;BME280;66825;51.880;-0.518;2023-05-01T09:45:17;100790.34;;;18.07;42.66
39435;BME280;66825;51.880;-0.518;2023-05-01T09:47:46;100786.53;;;18.08;42.35
39435;BME280;66825;51.880;-0.518;2023-05-01T09:52:54;100792.56;;;18.05;42.66
39435;BME280;66825;51.880;-0.518;2023-05-01T09:55:20;100794.41;;;18.10;42.71
39435;BME280;66825;51.880;-0.518;2023-05-01T09:57:46;100794.41;;;18.10;42.47
39435;BME280;66825;51.880;-0.518;2023-05-01T10:00:15;100794.41;;;18.10;42.47
39435;BME280;66825;51.880;-0.518;2023-05-01T10:02:45;100797.13;;;18.10;42.67
39435;BME280;66825;51.880;-0.518;2023-05-01T10:05:11;100789.75;;;18.10;42.58
39435;BME280;66825;51.880;-0.518;2023-05-01T10:07:37;100787.00;;;18.10;42.71
39435;BME280;66825;51.880;-0.518;2023-05-01T10:10:20;100795.19;;;18.10;42.62
39435;BME280;66825;51.880;-0.518;2023-05-01T10:12:46;100792.19;;;18.12;42.65
39435;BME280;66825;51.880;-0.518;2023-05-01T10:15:12;100788.63;;;18.12;42.77
39435;BME280;66825;51.880;-0.518;2023-05-01T10:17:38;100790.25;;;18.13;42.67
39435;BME280;66825;51.880;-0.518;2023-05-01T10:20:10;100791.88;;;18.14;42.59
39435;BME280;66825;51.880;-0.518;2023-05-01T10:22:39;100761.03;;;17.99;42.71
39435;BME280;66825;51.880;-0.518;2023-05-01T10:25:09;100790.03;;;18.09;42.88
39435;BME280;66825;51.880;-0.518;2023-05-01T10:27:38;100796.25;;;18.15;42.79
39435;BME280;66825;51.880;-0.518;2023-05-01T10:30:05;100799.28;;;18.13;42.36
39435;BME280;66825;51.880;-0.518;2023-05-01T10:32:31;100787.84;;;18.11;42.35
39435;BME280;66825;51.880;-0.518;2023-05-01T10:35:04;100796.25;;;18.15;42.48
39435;BME280;66825;51.880;-0.518;2023-05-01T10:37:48;100727.84;;;17.73;42.50
39435;BME280;66825;51.880;-0.518;2023-05-01T10:45:38;100800.59;;;18.16;42.52
39435;BME280;66825;51.880;-0.518;2023-05-01T10:48:04;100801.41;;;18.16;42.60
39435;BME280;66825;51.880;-0.518;2023-05-01T10:50:29;100772.78;;;17.94;42.50
39435;BME280;66825;51.880;-0.518;2023-05-01T10:55:45;100787.94;;;18.06;42.67
39435;BME280;66825;51.880;-0.518;2023-05-01T10:58:12;100734.59;;;17.75;42.68
39435;BME280;66825;51.880;-0.518;2023-05-01T11:00:38;100801.91;;;18.18;42.57
39435;BME280;66825;51.880;-0.518;2023-05-01T11:08:30;100801.63;;;18.20;42.90
39435;BME280;66825;51.880;-0.518;2023-05-01T11:10:56;100796.47;;;18.18;42.73
39435;BME280;66825;51.880;-0.518;2023-05-01T11:19:08;100715.63;;;17.70;42.78
39435;BME280;66825;51.880;-0.518;2023-05-01T11:21:35;100799.72;;;18.20;42.66
39435;BME280;66825;51.880;-0.518;2023-05-01T11:24:10;100744.34;;;17.82;42.73
39435;BME280;66825;51.880;-0.518;2023-05-01T11:26:37;100780.03;;;18.04;42.76
39435;BME280;66825;51.880;-0.518;2023-05-01T11:29:05;100791.66;;;18.10;42.67
39435;BME280;66825;51.880;-0.518;2023-05-01T11:31:31;100803.25;;;18.21;42.99
39435;BME280;66825;51.880;-0.518;2023-05-01T11:33:59;100802.44;;;18.20;42.95
39435;BME280;66825;51.880;-0.518;2023-05-01T11:36:26;100797.66;;;18.12;42.86
39435;BME280;66825;51.880;-0.518;2023-05-01T11:38:53;100765.22;;;17.91;42.80
39435;BME280;66825;51.880;-0.518;2023-05-01T11:41:26;100807.59;;;18.22;42.93
39435;BME280;66825;51.880;-0.518;2023-05-01T11:43:53;100818.19;;;18.23;42.68
39435;BME280;66825;51.880;-0.518;2023-05-01T11:46:27;100794.09;;;18.12;42.48
39435;BME280;66825;51.880;-0.518;2023-05-01T11:48:57;100813.03;;;18.22;42.66
39435;BME280;66825;51.880;-0.518;2023-05-01T11:51:23;100813.56;;;18.24;42.59
39435;BME280;66825;51.880;-0.518;2023-05-01T11:54:05;100810.31;;;18.22;42.69
39435;BME280;66825;51.880;-0.518;2023-05-01T11:56:32;100811.94;;;18.23;42.80
39435;BME280;66825;51.880;-0.518;2023-05-01T11:59:07;100811.63;;;18.24;42.85
39435;BME280;66825;51.880;-0.518;2023-05-01T12:01:35;100813.56;;;18.24;42.78
39435;BME280;66825;51.880;-0.518;2023-05-01T12:04:05;100821.75;;;18.24;42.48
39435;BME280;66825;51.880;-0.518;2023-05-01T12:06:42;100815.47;;;18.23;42.92
39435;BME280;66825;51.880;-0.518;2023-05-01T12:09:15;100813.25;;;18.25;42.86
39435;BME280;66825;51.880;-0.518;2023-05-01T12:11:42;100811.34;;;18.26;42.92
39435;BME280;66825;51.880;-0.518;2023-05-01T12:14:08;100791.66;;;18.10;42.90
39435;BME280;66825;51.880;-0.518;2023-05-01T12:16:35;100817.63;;;18.27;42.81
39435;BME280;66825;51.880;-0.518;2023-05-01T12:19:02;100819.25;;;18.28;42.93
39435;BME280;66825;51.880;-0.518;2023-05-01T12:21:28;100755.69;;;17.89;42.91
39435;BME280;66825;51.880;-0.518;2023-05-01T12:23:53;100793.00;;;18.13;42.86
39435;BME280;66825;51.880;-0.518;2023-05-01T12:26:21;100818.41;;;18.27;42.66
39435;BME280;66825;51.880;-0.518;2023-05-01T12:31:18;100827.13;;;18.29;42.88
39435;BME280;66825;51.880;-0.518;2023-05-01T12:33:55;100828.22;;;18.28;42.68
39435;BME280;66825;51.880;-0.518;2023-05-01T12:36:22;100826.28;;;18.29;42.75
39435;BME280;66825;51.880;-0.518;2023-05-01T12:39:01;100808.47;;;18.17;42.88
39435;BME280;66825;51.880;-0.518;2023-05-01T12:41:44;100826.03;;;18.30;43.02
39435;BME280;66825;51.880;-0.518;2023-05-01T12:49:23;100835.81;;;18.31;42.88
39435;BME280;66825;51.880;-0.518;2023-05-01T12:51:53;100838.56;;;18.31;42.51
39435;BME280;66825;51.880;-0.518;2023-05-01T12:54:26;100841.28;;;18.31;42.81
39435;BME280;66825;51.880;-0.518;2023-05-01T12:56:52;100839.66;;;18.30;42.80
39435;BME280;66825;51.880;-0.518;2023-05-01T12:59:19;100846.72;;;18.31;42.91
39435;BME280;66825;51.880;-0.518;2023-05-01T13:01:46;100848.34;;;18.32;42.97
39435;BME280;66825;51.880;-0.518;2023-05-01T13:04:11;100839.03;;;18.33;42.76
39435;BME280;66825;51.880;-0.518;2023-05-01T13:06:37;100843.69;;;18.33;42.83
39435;BME280;66825;51.880;-0.518;2023-05-01T13:09:07;100843.69;;;18.33;42.97
39435;BME280;66825;51.880;-0.518;2023-05-01T13:11:36;100849.97;;;18.33;43.05
39435;BME280;66825;51.880;-0.518;2023-05-01T13:14:08;100820.47;;;18.16;43.02
39435;BME280;66825;51.880;-0.518;2023-05-01T13:16:43;100849.69;;;18.35;42.78
39435;BME280;66825;51.880;-0.518;2023-05-01T13:19:09;100857.88;;;18.35;42.84
39435;BME280;66825;51.880;-0.518;2023-05-01T13:21:35;100841.06;;;18.28;42.83